sensor_id;sensor_type;location;lat;lon;timestamp;pressure;altitude;pressure_sealevel;temperature;humidity
28630;BME280;15817;42.130;24.762;2023-02-04T00:04:33;99817.22;;;4.84;57.36
28630;BME280;15817;42.130;24.762;2023-02-04T00:07:02;99837.56;;;4.94;57.78
28630;BME280;15817;42.130;24.762;2023-02-04T00:09:28;99816.34;;;4.86;58.60
28630;BME280;15817;42.130;24.762;2023-02-04T00:11:54;99819.94;;;4.90;58.81
28630;BME280;15817;42.130;24.762;2023-02-04T00:14:22;99825.31;;;4.96;58.96
28630;BME280;15817;42.130;24.762;2023-02-04T00:16:47;99817.38;;;4.94;59.50
28630;BME280;15817;42.130;24.762;2023-02-04T00:19:13;99799.75;;;4.90;58.81
28630;BME280;15817;42.130;24.762;2023-02-04T00:21:43;99813.00;;;4.95;60.00
28630;BME280;15817;42.130;24.762;2023-02-04T00:24:10;99797.78;;;4.77;59.55
28630;BME280;15817;42.130;24.762;2023-02-04T00:26:48;99797.72;;;4.74;59.08
28630;BME280;15817;42.130;24.762;2023-02-04T00:29:14;99800.31;;;4.71;59.81
28630;BME280;15817;42.130;24.762;2023-02-04T00:31:39;99799.47;;;4.73;60.18
28630;BME280;15817;42.130;24.762;2023-02-04T00:34:11;99793.31;;;4.73;60.97
28630;BME280;15817;42.130;24.762;2023-02-04T00:36:42;99796.09;;;4.81;61.20
28630;BME280;15817;42.130;24.762;2023-02-04T00:39:09;99784.63;;;4.79;61.27
28630;BME280;15817;42.130;24.762;2023-02-04T00:41:37;99787.38;;;4.86;61.33
28630;BME280;15817;42.130;24.762;2023-02-04T00:44:09;99789.09;;;4.83;61.33
28630;BME280;15817;42.130;24.762;2023-02-04T00:46:35;99791.81;;;4.89;60.99
28630;BME280;15817;42.130;24.762;2023-02-04T00:49:05;99776.75;;;4.80;60.69
28630;BME280;15817;42.130;24.762;2023-02-04T00:51:38;99795.34;;;4.91;60.56
28630;BME280;15817;42.130;24.762;2023-02-04T00:54:21;99775.94;;;4.86;60.67
28630;BME280;15817;42.130;24.762;2023-02-04T00:56:47;99792.72;;;4.91;60.27
28630;BME280;15817;42.130;24.762;2023-02-04T00:59:13;99784.75;;;4.88;59.44
28630;BME280;15817;42.130;24.762;2023-02-04T01:01:39;99768.00;;;4.81;59.85
28630;BME280;15817;42.130;24.762;2023-02-04T01:04:08;99772.41;;;4.85;59.73
28630;BME280;15817;42.130;24.762;2023-02-04T01:06:34;99760.97;;;4.82;59.52
28630;BME280;15817;42.130;24.762;2023-02-04T01:09:34;99770.72;;;4.89;58.84
28630;BME280;15817;42.130;24.762;2023-02-04T01:12:21;99742.53;;;4.82;58.99
28630;BME280;15817;42.130;24.762;2023-02-04T01:14:55;99738.97;;;4.80;59.40
28630;BME280;15817;42.130;24.762;2023-02-04T01:17:21;99746.94;;;4.83;59.67
28630;BME280;15817;42.130;24.762;2023-02-04T01:19:56;99724.00;;;4.77;59.96
28630;BME280;15817;42.130;24.762;2023-02-04T01:22:25;99720.59;;;4.83;60.57
28630;BME280;15817;42.130;24.762;2023-02-04T01:24:51;99717.09;;;4.84;60.17
28630;BME280;15817;42.130;24.762;2023-02-04T01:27:45;99702.94;;;4.77;59.64
28630;BME280;15817;42.130;24.762;2023-02-04T01:30:12;99703.88;;;4.81;60.11
28630;BME280;15817;42.130;24.762;2023-02-04T01:32:47;99679.25;;;4.79;60.33
28630;BME280;15817;42.130;24.762;2023-02-04T01:35:16;99680.94;;;4.75;59.32
28630;BME280;15817;42.130;24.762;2023-02-04T01:37:45;99662.53;;;4.77;60.12
28630;BME280;15817;42.130;24.762;2023-02-04T01:40:13;99658.25;;;4.83;60.60
28630;BME280;15817;42.130;24.762;2023-02-04T01:42:39;99648.53;;;4.81;60.92
28630;BME280;15817;42.130;24.762;2023-02-04T01:45:07;99651.28;;;4.90;60.67
28630;BME280;15817;42.130;24.762;2023-02-04T01:47:33;99639.78;;;4.85;60.01
28630;BME280;15817;42.130;24.762;2023-02-04T01:50:07;99666.22;;;4.89;60.16
28630;BME280;15817;42.130;24.762;2023-02-04T01:52:41;99652.97;;;4.85;59.43
28630;BME280;15817;42.130;24.762;2023-02-04T01:55:19;99642.28;;;4.71;59.62
28630;BME280;15817;42.130;24.762;2023-02-04T01:57:46;99651.06;;;4.71;60.28
28630;BME280;15817;42.130;24.762;2023-02-04T02:00:38;99639.47;;;4.62;60.21
28630;BME280;15817;42.130;24.762;2023-02-04T02:03:10;99638.59;;;4.60;59.98
28630;BME280;15817;42.130;24.762;2023-02-04T02:05:45;99633.31;;;4.58;59.99
28630;BME280;15817;42.130;24.762;2023-02-04T02:08:12;99639.47;;;4.59;60.05
28630;BME280;15817;42.130;24.762;2023-02-04T02:10:41;99633.31;;;4.58;60.26
28630;BME280;15817;42.130;24.762;2023-02-04T02:13:12;99634.34;;;4.69;60.03
28630;BME280;15817;42.130;24.762;2023-02-04T02:15:50;99623.66;;;4.59;59.82
28630;BME280;15817;42.130;24.762;2023-02-04T02:18:19;99625.47;;;4.64;59.88
28630;BME280;15817;42.130;24.762;2023-02-04T02:20:45;99625.53;;;4.67;60.07
28630;BME280;15817;42.130;24.762;2023-02-04T02:23:21;99636.16;;;4.75;60.34
28630;BME280;15817;42.130;24.762;2023-02-04T02:25:57;99616.81;;;4.71;60.63
28630;BME280;15817;42.130;24.762;2023-02-04T02:28:26;99606.25;;;4.70;60.40
28630;BME280;15817;42.130;24.762;2023-02-04T02:30:54;99599.25;;;4.73;60.85
28630;BME280;15817;42.130;24.762;2023-02-04T02:33:20;99596.59;;;4.70;59.72
28630;BME280;15817;42.130;24.762;2023-02-04T02:35:46;99611.56;;;4.71;59.09
28630;BME280;15817;42.130;24.762;2023-02-04T02:38:17;99616.84;;;4.74;58.91
28630;BME280;15817;42.130;24.762;2023-02-04T02:40:46;99597.53;;;4.76;59.96
28630;BME280;15817;42.130;24.762;2023-02-04T02:43:18;99573.78;;;4.71;60.25
28630;BME280;15817;42.130;24.762;2023-02-04T02:45:56;99574.69;;;4.74;60.83
28630;BME280;15817;42.130;24.762;2023-02-04T02:48:26;99581.78;;;4.80;61.13
28630;BME280;15817;42.130;24.762;2023-02-04T02:50:52;99566.81;;;4.78;60.78
28630;BME280;15817;42.130;24.762;2023-02-04T02:53:30;99566.88;;;4.81;61.14
28630;BME280;15817;42.130;24.762;2023-02-04T02:55:56;99573.88;;;4.80;61.43
28630;BME280;15817;42.130;24.762;2023-02-04T02:58:33;99573.06;;;4.86;61.21
28630;BME280;15817;42.130;24.762;2023-02-04T03:01:03;99567.81;;;4.84;61.44
28630;BME280;15817;42.130;24.762;2023-02-04T03:03:35;99559.00;;;4.82;61.86
28630;BME280;15817;42.130;24.762;2023-02-04T03:06:14;99544.88;;;4.79;61.83
28630;BME280;15817;42.130;24.762;2023-02-04T03:08:43;99545.81;;;4.82;61.77
28630;BME280;15817;42.130;24.762;2023-02-04T03:11:13;99527.34;;;4.79;61.68
28630;BME280;15817;42.130;24.762;2023-02-04T03:13:40;99540.59;;;4.87;61.85
28630;BME280;15817;42.130;24.762;2023-02-04T03:16:07;99534.41;;;4.85;62.18
28630;BME280;15817;42.130;24.762;2023-02-04T03:18:34;99535.28;;;4.85;62.27
28630;BME280;15817;42.130;24.762;2023-02-04T03:21:01;99522.09;;;4.81;61.90
28630;BME280;15817;42.130;24.762;2023-02-04T03:23:30;99523.84;;;4.80;61.87
28630;BME280;15817;42.130;24.762;2023-02-04T03:25:58;99536.19;;;4.84;61.89
28630;BME280;15817;42.130;24.762;2023-02-04T03:28:38;99535.16;;;4.74;61.69
28630;BME280;15817;42.130;24.762;2023-02-04T03:31:04;99519.22;;;4.61;62.34
28630;BME280;15817;42.130;24.762;2023-02-04T03:33:30;99529.66;;;4.55;62.66
28630;BME280;15817;42.130;24.762;2023-02-04T03:35:59;99531.50;;;4.62;63.19
28630;BME280;15817;42.130;24.762;2023-02-04T03:38:25;99520.97;;;4.59;62.79
28630;BME280;15817;42.130;24.762;2023-02-04T03:40:51;99531.53;;;4.63;62.53
28630;BME280;15817;42.130;24.762;2023-02-04T03:43:16;99528.88;;;4.63;62.71
28630;BME280;15817;42.130;24.762;2023-02-04T03:45:46;99516.59;;;4.61;62.67
28630;BME280;15817;42.130;24.762;2023-02-04T03:48:12;99526.34;;;4.69;62.24
28630;BME280;15817;42.130;24.762;2023-02-04T03:50:41;99515.78;;;4.68;62.42
28630;BME280;15817;42.130;24.762;2023-02-04T03:53:08;99510.53;;;4.68;62.12
28630;BME280;15817;42.130;24.762;2023-02-04T03:55:33;99494.63;;;4.62;62.26
28630;BME280;15817;42.130;24.762;2023-02-04T03:58:01;99502.53;;;4.62;62.40
28630;BME280;15817;42.130;24.762;2023-02-04T04:00:27;99491.13;;;4.60;62.48
28630;BME280;15817;42.130;24.762;2023-02-04T04:02:57;99482.31;;;4.58;62.10
28630;BME280;15817;42.130;24.762;2023-02-04T04:05:29;99469.97;;;4.54;62.02
28630;BME280;15817;42.130;24.762;2023-02-04T04:07:55;99465.56;;;4.50;61.86
28630;BME280;15817;42.130;24.762;2023-02-04T04:10:21;99462.91;;;4.48;62.41
28630;BME280;15817;42.130;24.762;2023-02-04T04:12:47;99464.66;;;4.49;63.07
28630;BME280;15817;42.130;24.762;2023-02-04T04:15:16;99454.88;;;4.41;63.50
28630;BME280;15817;42.130;24.762;2023-02-04T04:17:42;99450.50;;;4.38;63.82
28630;BME280;15817;42.130;24.762;2023-02-04T04:20:09;99469.84;;;4.43;64.21
28630;BME280;15817;42.130;24.762;2023-02-04T04:22:42;99454.94;;;4.44;64.33
28630;BME280;15817;42.130;24.762;2023-02-04T04:25:16;99435.59;;;4.42;64.28
28630;BME280;15817;42.130;24.762;2023-02-04T04:27:53;99449.63;;;4.41;63.36
28630;BME280;15817;42.130;24.762;2023-02-04T04:31:02;99459.38;;;4.48;63.33
28630;BME280;15817;42.130;24.762;2023-02-04T04:37:57;99453.22;;;4.47;62.99
28630;BME280;15817;42.130;24.762;2023-02-04T04:41:27;99454.97;;;4.47;62.28
28630;BME280;15817;42.130;24.762;2023-02-04T04:44:39;99451.47;;;4.46;61.83
28630;BME280;15817;42.130;24.762;2023-02-04T04:47:33;99437.47;;;4.53;62.82
28630;BME280;15817;42.130;24.762;2023-02-04T04:50:15;99433.09;;;4.52;62.81
28630;BME280;15817;42.130;24.762;2023-02-04T04:53:07;99456.00;;;4.59;63.63
28630;BME280;15817;42.130;24.762;2023-02-04T04:56:17;99435.69;;;4.49;63.20
28630;BME280;15817;42.130;24.762;2023-02-04T04:58:48;99449.88;;;4.60;63.41
28630;BME280;15817;42.130;24.762;2023-02-04T05:01:28;99414.66;;;4.54;63.55
28630;BME280;15817;42.130;24.762;2023-02-04T05:04:14;99412.00;;;4.52;63.36
28630;BME280;15817;42.130;24.762;2023-02-04T05:07:11;99433.19;;;4.60;63.79
28630;BME280;15817;42.130;24.762;2023-02-04T05:10:00;99424.34;;;4.56;63.13
28630;BME280;15817;42.130;24.762;2023-02-04T05:12:41;99427.84;;;4.54;63.79
28630;BME280;15817;42.130;24.762;2023-02-04T05:15:15;99436.59;;;4.53;63.73
28630;BME280;15817;42.130;24.762;2023-02-04T05:17:44;99426.06;;;4.53;63.70
28630;BME280;15817;42.130;24.762;2023-02-04T05:20:10;99433.19;;;4.60;63.92
28630;BME280;15817;42.130;24.762;2023-02-04T05:23:09;99429.56;;;4.52;64.72
28630;BME280;15817;42.130;24.762;2023-02-04T05:29:41;99419.00;;;4.47;64.92
28630;BME280;15817;42.130;24.762;2023-02-04T05:42:51;99407.63;;;4.53;64.14
28630;BME280;15817;42.130;24.762;2023-02-04T05:45:37;99424.41;;;4.59;64.21
28630;BME280;15817;42.130;24.762;2023-02-04T05:48:03;99418.25;;;4.59;64.21
28630;BME280;15817;42.130;24.762;2023-02-04T05:53:56;99434.97;;;4.64;64.04
28630;BME280;15817;42.130;24.762;2023-02-04T05:57:29;99427.03;;;4.59;64.01
28630;BME280;15817;42.130;24.762;2023-02-04T06:00:11;99419.16;;;4.64;63.75
28630;BME280;15817;42.130;24.762;2023-02-04T06:03:32;99438.53;;;4.67;64.07
28630;BME280;15817;42.130;24.762;2023-02-04T06:06:00;99436.72;;;4.65;64.54
28630;BME280;15817;42.130;24.762;2023-02-04T06:08:54;99442.91;;;4.67;63.73
28630;BME280;15817;42.130;24.762;2023-02-04T06:11:20;99438.47;;;4.61;64.23
28630;BME280;15817;42.130;24.762;2023-02-04T06:13:48;99433.19;;;4.60;63.92
28630;BME280;15817;42.130;24.762;2023-02-04T06:16:17;99432.31;;;4.64;63.95
28630;BME280;15817;42.130;24.762;2023-02-04T06:18:46;99442.03;;;4.68;63.87
28630;BME280;15817;42.130;24.762;2023-02-04T06:21:11;99414.78;;;4.61;64.20
28630;BME280;15817;42.130;24.762;2023-02-04T06:23:37;99436.78;;;4.69;63.82
28630;BME280;15817;42.130;24.762;2023-02-04T06:26:03;99419.13;;;4.59;64.02
28630;BME280;15817;42.130;24.762;2023-02-04T06:28:29;99434.97;;;4.65;63.43
28630;BME280;15817;42.130;24.762;2023-02-04T06:30:55;99436.72;;;4.60;64.25
28630;BME280;15817;42.130;24.762;2023-02-04T06:33:23;99427.88;;;4.57;64.51
28630;BME280;15817;42.130;24.762;2023-02-04T06:35:49;99438.38;;;4.54;65.41
28630;BME280;15817;42.130;24.762;2023-02-04T06:38:21;99434.88;;;4.55;65.67
28630;BME280;15817;42.130;24.762;2023-02-04T06:40:47;99438.44;;;4.60;66.04
28630;BME280;15817;42.130;24.762;2023-02-04T06:43:19;99441.09;;;4.63;65.85
28630;BME280;15817;42.130;24.762;2023-02-04T06:45:50;99434.09;;;4.65;65.72
28630;BME280;15817;42.130;24.762;2023-02-04T06:48:32;99441.97;;;4.63;65.91
28630;BME280;15817;42.130;24.762;2023-02-04T06:51:34;99461.41;;;4.74;66.00
28630;BME280;15817;42.130;24.762;2023-02-04T06:54:03;99467.53;;;4.73;65.77
28630;BME280;15817;42.130;24.762;2023-02-04T06:56:54;99465.81;;;4.76;65.79
28630;BME280;15817;42.130;24.762;2023-02-04T06:59:52;99473.66;;;4.69;66.02
28630;BME280;15817;42.130;24.762;2023-02-04T07:02:31;99449.91;;;4.66;66.52
28630;BME280;15817;42.130;24.762;2023-02-04T07:05:10;99466.59;;;4.67;67.42
28630;BME280;15817;42.130;24.762;2023-02-04T07:07:58;99472.81;;;4.73;67.47
28630;BME280;15817;42.130;24.762;2023-02-04T07:10:24;99463.94;;;4.61;67.79
28630;BME280;15817;42.130;24.762;2023-02-04T07:13:27;99485.13;;;4.74;68.57
28630;BME280;15817;42.130;24.762;2023-02-04T07:24:35;99480.97;;;4.95;67.73
28630;BME280;15817;42.130;24.762;2023-02-04T07:27:19;99459.81;;;4.89;67.30
28630;BME280;15817;42.130;24.762;2023-02-04T07:29:45;99459.91;;;4.95;66.90
28630;BME280;15817;42.130;24.762;2023-02-04T07:32:12;99451.97;;;4.96;67.15
28630;BME280;15817;42.130;24.762;2023-02-04T07:34:45;99466.13;;;5.04;67.24
28630;BME280;15817;42.130;24.762;2023-02-04T07:37:56;99467.03;;;5.09;67.64
28630;BME280;15817;42.130;24.762;2023-02-04T07:40:25;99461.75;;;5.09;67.97
28630;BME280;15817;42.130;24.762;2023-02-04T07:42:50;99475.06;;;5.23;68.26
28630;BME280;15817;42.130;24.762;2023-02-04T07:45:23;99461.06;;;5.27;68.70
28630;BME280;15817;42.130;24.762;2023-02-04T07:48:39;99447.84;;;5.24;69.32
28630;BME280;15817;42.130;24.762;2023-02-04T07:55:28;99424.28;;;5.47;70.62
28630;BME280;15817;42.130;24.762;2023-02-04T07:57:57;99420.91;;;5.63;70.59
28630;BME280;15817;42.130;24.762;2023-02-04T08:00:23;99415.69;;;5.74;70.10
28630;BME280;15817;42.130;24.762;2023-02-04T08:02:52;99403.38;;;5.73;70.13
28630;BME280;15817;42.130;24.762;2023-02-04T08:05:22;99390.22;;;5.82;70.30
28630;BME280;15817;42.130;24.762;2023-02-04T08:07:51;99391.22;;;5.96;69.77
28630;BME280;15817;42.130;24.762;2023-02-04T08:14:02;99384.28;;;6.18;69.24
28630;BME280;15817;42.130;24.762;2023-02-04T08:16:35;99390.44;;;6.26;70.46
28630;BME280;15817;42.130;24.762;2023-02-04T08:19:01;99386.09;;;6.40;70.61
28630;BME280;15817;42.130;24.762;2023-02-04T08:21:30;99399.31;;;6.49;69.82
28630;BME280;15817;42.130;24.762;2023-02-04T08:24:09;99382.59;;;6.52;69.83
28630;BME280;15817;42.130;24.762;2023-02-04T08:26:35;99371.16;;;6.53;70.03
28630;BME280;15817;42.130;24.762;2023-02-04T08:29:02;99376.47;;;6.62;69.70
28630;BME280;15817;42.130;24.762;2023-02-04T08:31:28;99361.50;;;6.66;69.14
28630;BME280;15817;42.130;24.762;2023-02-04T08:33:53;99364.16;;;6.72;68.16
28630;BME280;15817;42.130;24.762;2023-02-04T08:36:48;99356.22;;;6.81;68.09
28630;BME280;15817;42.130;24.762;2023-02-04T08:39:17;99357.13;;;6.84;68.14
28630;BME280;15817;42.130;24.762;2023-02-04T08:41:48;99335.09;;;6.93;68.52
28630;BME280;15817;42.130;24.762;2023-02-04T08:44:16;99333.31;;;7.06;66.19
28630;BME280;15817;42.130;24.762;2023-02-04T08:46:42;99346.53;;;7.21;64.81
28630;BME280;15817;42.130;24.762;2023-02-04T08:49:07;99342.13;;;7.21;64.04
28630;BME280;15817;42.130;24.762;2023-02-04T08:51:59;99340.34;;;7.33;62.46
28630;BME280;15817;42.130;24.762;2023-02-04T08:54:30;99342.09;;;7.41;61.10
28630;BME280;15817;42.130;24.762;2023-02-04T08:56:57;99356.19;;;7.57;60.22
28630;BME280;15817;42.130;24.762;2023-02-04T08:59:23;99353.50;;;7.63;59.08
28630;BME280;15817;42.130;24.762;2023-02-04T09:02:28;99349.09;;;7.70;58.99
28630;BME280;15817;42.130;24.762;2023-02-04T09:04:53;99349.94;;;7.75;58.41
28630;BME280;15817;42.130;24.762;2023-02-04T09:07:19;99355.22;;;7.87;58.50
28630;BME280;15817;42.130;24.762;2023-02-04T09:13:16;99364.81;;;8.18;57.74
28630;BME280;15817;42.130;24.762;2023-02-04T09:15:51;99354.16;;;8.26;56.15
28630;BME280;15817;42.130;24.762;2023-02-04T09:18:31;99351.44;;;8.43;56.02
28630;BME280;15817;42.130;24.762;2023-02-04T09:20:57;99341.81;;;8.28;55.87
28630;BME280;15817;42.130;24.762;2023-02-04T09:23:24;99323.31;;;8.17;55.60
28630;BME280;15817;42.130;24.762;2023-02-04T09:25:56;99321.59;;;8.06;55.98
28630;BME280;15817;42.130;24.762;2023-02-04T09:28:22;99345.41;;;8.12;55.27
28630;BME280;15817;42.130;24.762;2023-02-04T09:30:53;99339.22;;;8.11;55.72
28630;BME280;15817;42.130;24.762;2023-02-04T09:33:35;99324.22;;;8.16;55.49
28630;BME280;15817;42.130;24.762;2023-02-04T09:36:18;99338.19;;;8.44;54.79
28630;BME280;15817;42.130;24.762;2023-02-04T09:39:31;99325.00;;;8.38;54.77
28630;BME280;15817;42.130;24.762;2023-02-04T09:41:57;99320.59;;;8.34;54.54
28630;BME280;15817;42.130;24.762;2023-02-04T09:58:23;99293.22;;;8.37;54.91
28630;BME280;15817;42.130;24.762;2023-02-04T10:01:15;99308.16;;;8.44;55.21
28630;BME280;15817;42.130;24.762;2023-02-04T10:03:55;99293.22;;;8.32;54.80
28630;BME280;15817;42.130;24.762;2023-02-04T10:07:20;99289.66;;;8.38;54.94
28630;BME280;15817;42.130;24.762;2023-02-04T10:13:59;99273.69;;;8.47;54.69
28630;BME280;15817;42.130;24.762;2023-02-04T10:20:20;99284.78;;;8.99;52.95
28630;BME280;15817;42.130;24.762;2023-02-04T10:22:55;99266.94;;;9.12;53.00
28630;BME280;15817;42.130;24.762;2023-02-04T10:25:26;99268.69;;;9.16;52.37
28630;BME280;15817;42.130;24.762;2023-02-04T10:28:04;99268.59;;;9.26;52.59
28630;BME280;15817;42.130;24.762;2023-02-04T10:30:43;99272.06;;;9.33;52.41
28630;BME280;15817;42.130;24.762;2023-02-04T10:36:50;99259.94;;;9.09;53.07
28630;BME280;15817;42.130;24.762;2023-02-04T10:39:50;99265.25;;;9.04;53.38
28630;BME280;15817;42.130;24.762;2023-02-04T10:42:46;99260.94;;;8.97;53.31
28630;BME280;15817;42.130;24.762;2023-02-04T10:45:39;99263.56;;;8.97;54.06
28630;BME280;15817;42.130;24.762;2023-02-04T10:48:47;99241.59;;;8.83;54.08
28630;BME280;15817;42.130;24.762;2023-02-04T10:51:17;99234.63;;;8.76;53.94
28630;BME280;15817;42.130;24.762;2023-02-04T10:56:47;99230.13;;;8.81;54.86
28630;BME280;15817;42.130;24.762;2023-02-04T10:59:37;99224.84;;;8.80;54.73
28630;BME280;15817;42.130;24.762;2023-02-04T11:05:41;99215.19;;;8.73;55.49
28630;BME280;15817;42.130;24.762;2023-02-04T11:08:21;99217.84;;;8.74;55.16
28630;BME280;15817;42.130;24.762;2023-02-04T11:11:00;99213.41;;;8.76;55.11
28630;BME280;15817;42.130;24.762;2023-02-04T11:13:42;99207.13;;;8.83;55.47
28630;BME280;15817;42.130;24.762;2023-02-04T11:19:33;99200.91;;;8.87;55.47
28630;BME280;15817;42.130;24.762;2023-02-04T11:22:22;99209.66;;;8.95;55.94
28630;BME280;15817;42.130;24.762;2023-02-04T11:24:55;99206.16;;;8.92;55.57
28630;BME280;15817;42.130;24.762;2023-02-04T11:27:53;99203.50;;;8.92;55.88
28630;BME280;15817;42.130;24.762;2023-02-04T11:30:31;99199.97;;;8.91;56.14
28630;BME280;15817;42.130;24.762;2023-02-04T11:33:23;99206.94;;;9.03;56.34
28630;BME280;15817;42.130;24.762;2023-02-04T11:37:13;99199.00;;;9.00;56.54
28630;BME280;15817;42.130;24.762;2023-02-04T11:43:09;99201.59;;;9.07;56.73
28630;BME280;15817;42.130;24.762;2023-02-04T11:46:11;99197.91;;;9.22;56.01
28630;BME280;15817;42.130;24.762;2023-02-04T11:48:38;99190.72;;;9.30;55.54
28630;BME280;15817;42.130;24.762;2023-02-04T12:58:44;99176.97;;;8.92;62.02
28630;BME280;15817;42.130;24.762;2023-02-04T13:01:23;99197.31;;;8.94;61.65
28630;BME280;15817;42.130;24.762;2023-02-04T13:11:43;99195.66;;;8.83;60.57
28630;BME280;15817;42.130;24.762;2023-02-04T13:14:09;99208.88;;;8.86;60.64
28630;BME280;15817;42.130;24.762;2023-02-04T13:16:38;99212.44;;;8.85;60.85
28630;BME280;15817;42.130;24.762;2023-02-04T13:19:14;99203.69;;;8.77;61.30
28630;BME280;15817;42.130;24.762;2023-02-04T13:21:44;99209.81;;;8.79;61.80
28630;BME280;15817;42.130;24.762;2023-02-04T13:24:12;99206.25;;;8.81;62.53
28630;BME280;15817;42.130;24.762;2023-02-04T13:26:38;99184.16;;;8.82;62.05
28630;BME280;15817;42.130;24.762;2023-02-04T13:29:04;99199.16;;;8.86;62.42
28630;BME280;15817;42.130;24.762;2023-02-04T13:31:30;99188.59;;;8.82;61.98
28630;BME280;15817;42.130;24.762;2023-02-04T13:33:59;99189.47;;;8.82;61.31
28630;BME280;15817;42.130;24.762;2023-02-04T13:36:25;99195.66;;;8.83;61.28
28630;BME280;15817;42.130;24.762;2023-02-04T13:38:55;99195.66;;;8.83;61.30
28630;BME280;15817;42.130;24.762;2023-02-04T13:41:44;99201.81;;;8.88;61.58
28630;BME280;15817;42.130;24.762;2023-02-04T13:44:17;99202.72;;;8.84;61.22
28630;BME280;15817;42.130;24.762;2023-02-04T13:46:43;99208.91;;;8.81;61.38
28630;BME280;15817;42.130;24.762;2023-02-04T13:49:19;99221.25;;;8.87;60.71
28630;BME280;15817;42.130;24.762;2023-02-04T13:52:33;99230.09;;;8.86;60.22
28630;BME280;15817;42.130;24.762;2023-02-04T13:54:59;99238.06;;;8.86;60.16
28630;BME280;15817;42.130;24.762;2023-02-04T13:57:28;99232.75;;;8.87;60.32
28630;BME280;15817;42.130;24.762;2023-02-04T14:00:10;99219.53;;;8.81;60.64
28630;BME280;15817;42.130;24.762;2023-02-04T14:02:56;99231.88;;;8.85;60.91
28630;BME280;15817;42.130;24.762;2023-02-04T14:08:52;99244.25;;;8.83;62.32
28630;BME280;15817;42.130;24.762;2023-02-04T14:15:09;99233.75;;;8.73;64.16
28630;BME280;15817;42.130;24.762;2023-02-04T14:17:46;99239.94;;;8.73;64.31
28630;BME280;15817;42.130;24.762;2023-02-04T14:20:20;99240.81;;;8.72;64.11
28630;BME280;15817;42.130;24.762;2023-02-04T14:27:38;99243.47;;;8.70;64.64
28630;BME280;15817;42.130;24.762;2023-02-04T14:34:03;99255.84;;;8.70;64.70
28630;BME280;15817;42.130;24.762;2023-02-04T14:37:02;99261.16;;;8.70;64.98
28630;BME280;15817;42.130;24.762;2023-02-04T14:40:20;99263.81;;;8.68;64.72
28630;BME280;15817;42.130;24.762;2023-02-04T14:46:32;99271.84;;;8.58;64.54
28630;BME280;15817;42.130;24.762;2023-02-04T14:48:59;99272.75;;;8.55;64.95
28630;BME280;15817;42.130;24.762;2023-02-04T14:51:46;99267.44;;;8.55;65.36
28630;BME280;15817;42.130;24.762;2023-02-04T14:54:24;99263.97;;;8.52;65.88
28630;BME280;15817;42.130;24.762;2023-02-04T14:56:50;99263.09;;;8.47;66.38
28630;BME280;15817;42.130;24.762;2023-02-04T14:59:15;99259.59;;;8.43;66.53
28630;BME280;15817;42.130;24.762;2023-02-04T15:01:41;99255.22;;;8.39;67.33
28630;BME280;15817;42.130;24.762;2023-02-04T15:04:18;99266.69;;;8.40;68.02
28630;BME280;15817;42.130;24.762;2023-02-04T15:06:49;99272.00;;;8.41;68.50
28630;BME280;15817;42.130;24.762;2023-02-04T15:09:28;99263.19;;;8.34;68.34
28630;BME280;15817;42.130;24.762;2023-02-04T15:12:20;99256.16;;;8.26;68.18
28630;BME280;15817;42.130;24.762;2023-02-04T15:15:45;99260.59;;;8.22;67.67
28630;BME280;15817;42.130;24.762;2023-02-04T15:22:43;99272.13;;;8.17;67.40
28630;BME280;15817;42.130;24.762;2023-02-04T16:17:12;99351.75;;;7.73;74.97
28630;BME280;15817;42.130;24.762;2023-02-04T16:31:28;99376.47;;;7.61;77.65
28630;BME280;15817;42.130;24.762;2023-02-04T16:37:20;99391.47;;;7.57;78.27
28630;BME280;15817;42.130;24.762;2023-02-04T17:19:38;99447.94;;;7.24;76.19
28630;BME280;15817;42.130;24.762;2023-02-04T17:26:33;99451.41;;;7.07;75.68
28630;BME280;15817;42.130;24.762;2023-02-04T19:06:27;99564.84;;;6.43;61.91
28630;BME280;15817;42.130;24.762;2023-02-04T19:59:35;99634.19;;;6.16;60.33
28630;BME280;15817;42.130;24.762;2023-02-04T20:10:26;99629.72;;;6.06;60.65
28630;BME280;15817;42.130;24.762;2023-02-04T20:28:46;99641.00;;;5.90;60.98
28630;BME280;15817;42.130;24.762;2023-02-04T20:31:27;99638.28;;;5.83;61.17
28630;BME280;15817;42.130;24.762;2023-02-04T20:38:15;99658.53;;;5.85;61.41
28630;BME280;15817;42.130;24.762;2023-02-04T20:40:56;99640.88;;;5.76;61.50
28630;BME280;15817;42.130;24.762;2023-02-04T20:43:26;99658.47;;;5.78;61.39
28630;BME280;15817;42.130;24.762;2023-02-04T20:45:54;99654.88;;;5.72;61.49
28630;BME280;15817;42.130;24.762;2023-02-04T20:48:44;99661.16;;;5.85;61.96
28630;BME280;15817;42.130;24.762;2023-02-04T20:51:24;99656.69;;;5.77;61.35
28630;BME280;15817;42.130;24.762;2023-02-04T20:53:53;99667.25;;;5.79;61.57
28630;BME280;15817;42.130;24.762;2023-02-04T20:56:34;99661.09;;;5.78;61.83
28630;BME280;15817;42.130;24.762;2023-02-04T20:59:31;99661.97;;;5.74;61.52
28630;BME280;15817;42.130;24.762;2023-02-04T21:09:33;99650.44;;;5.65;61.58
28630;BME280;15817;42.130;24.762;2023-02-04T22:23:12;99729.97;;;5.26;67.08
28630;BME280;15817;42.130;24.762;2023-02-04T22:26:12;99728.16;;;5.23;68.23
28630;BME280;15817;42.130;24.762;2023-02-04T22:28:38;99725.41;;;5.14;68.79
28630;BME280;15817;42.130;24.762;2023-02-04T22:31:06;99735.13;;;5.20;69.24
28630;BME280;15817;42.130;24.762;2023-02-04T22:33:39;99728.81;;;5.05;69.76
28630;BME280;15817;42.130;24.762;2023-02-04T22:36:05;99732.38;;;5.09;69.69
28630;BME280;15817;42.130;24.762;2023-02-04T22:38:31;99726.09;;;5.01;70.29
28630;BME280;15817;42.130;24.762;2023-02-04T22:40:57;99725.19;;;4.99;70.68
28630;BME280;15817;42.130;24.762;2023-02-04T22:43:26;99722.50;;;4.94;72.09
28630;BME280;15817;42.130;24.762;2023-02-04T22:45:52;99734.81;;;4.97;72.88
28630;BME280;15817;42.130;24.762;2023-02-04T22:48:23;99727.72;;;4.90;74.27
28630;BME280;15817;42.130;24.762;2023-02-04T22:50:49;99724.00;;;4.77;75.49
28630;BME280;15817;42.130;24.762;2023-02-04T22:53:15;99724.78;;;4.70;76.20